Time;durP1;ratioP1;P1;durP2;ratioP2;P2;SDS_P1;SDS_P2;PMS_P1;PMS_P2;Temp;Humidity;BMP_temperature;BMP_pressure;BME280_temperature;BME280_humidity;BME280_pressure;Samples;Min_cycle;Max_cycle;Signal;HPM_P1;HPM_P2
2022/03/18 00:01:00;;;;;;;38.93;27.20;;;;;;;10.73;100.00;97344.72;5080396;28;20232;-81
2022/03/18 00:03:28;;;;;;;43.30;28.77;;;;;;;10.61;100.00;97351.78;5077378;28;20632;-81
2022/03/18 00:05:55;;;;;;;45.23;28.00;;;;;;;10.61;100.00;97347.22;5094371;28;20212;-81
2022/03/18 00:08:22;;;;;;;45.13;28.53;;;;;;;10.65;100.00;97352.19;5085786;28;20481;-81
2022/03/18 00:10:49;;;;;;;46.20;28.60;;;;;;;10.60;100.00;97356.34;5078863;28;20218;-81
2022/03/18 00:13:16;;;;;;;43.30;28.80;;;;;;;10.59;100.00;97349.28;5084177;28;20209;-81
2022/03/18 00:15:43;;;;;;;42.47;28.40;;;;;;;10.59;100.00;97351.16;5085166;28;20224;-81
2022/03/18 00:18:10;;;;;;;45.10;29.17;;;;;;;10.57;100.00;97350.53;5082514;28;20209;-81
2022/03/18 00:20:39;;;;;;;47.97;29.40;;;;;;;10.46;100.00;97340.34;5077342;28;20244;-81
2022/03/18 00:23:06;;;;;;;46.40;30.00;;;;;;;10.42;100.00;97347.19;5074992;28;20236;-81
2022/03/18 00:25:33;;;;;;;45.27;29.33;;;;;;;10.35;100.00;97355.28;5072628;28;20201;-81
2022/03/18 00:28:00;;;;;;;48.87;28.70;;;;;;;10.41;100.00;97359.84;5085078;28;20211;-81
2022/03/18 00:30:27;;;;;;;44.63;28.73;;;;;;;10.50;100.00;97360.47;5074796;28;20213;-81
2022/03/18 00:32:55;;;;;;;50.03;28.83;;;;;;;10.47;100.00;97356.31;5079577;28;20200;-81
2022/03/18 00:35:23;;;;;;;47.90;28.70;;;;;;;10.42;100.00;97353.41;5083109;28;20295;-80
2022/03/18 00:37:52;;;;;;;44.53;28.70;;;;;;;10.41;100.00;97359.84;5083768;28;20214;-81
2022/03/18 00:40:19;;;;;;;47.23;29.07;;;;;;;10.38;100.00;97360.25;5083484;28;20221;-81
2022/03/18 00:42:46;;;;;;;48.37;30.40;;;;;;;10.44;100.00;97362.16;5083767;28;20197;-80
2022/03/18 00:45:13;;;;;;;45.77;29.00;;;;;;;10.38;100.00;97362.94;5084423;28;20216;-81
2022/03/18 00:53:11;;;;;;;46.97;29.47;;;;;;;10.40;100.00;97378.94;5072082;28;20204;-81
2022/03/18 00:55:38;;;;;;;50.43;30.10;;;;;;;10.39;100.00;97375.41;5078353;28;20205;-81
2022/03/18 00:58:05;;;;;;;44.93;28.97;;;;;;;10.35;100.00;97379.56;5076177;28;20220;-81
2022/03/18 01:00:32;;;;;;;46.00;29.23;;;;;;;10.32;100.00;97382.66;5080369;28;20216;-81
2022/03/18 01:03:00;;;;;;;46.37;30.13;;;;;;;10.35;100.00;97379.56;5084098;28;20214;-81
2022/03/18 01:05:27;;;;;;;49.43;30.87;;;;;;;10.27;100.00;97387.03;5081388;28;20205;-81
2022/03/18 01:07:54;;;;;;;44.60;29.43;;;;;;;10.23;100.00;97386.59;5081998;28;20201;-81
2022/03/18 01:10:23;;;;;;;47.60;29.67;;;;;;;10.21;100.00;97380.53;5080506;28;20205;-80
2022/03/18 01:12:50;;;;;;;47.73;31.30;;;;;;;10.22;100.00;97379.50;5110623;27;20217;-80
2022/03/18 01:15:17;;;;;;;47.37;29.43;;;;;;;10.31;100.00;97383.69;5079528;28;20287;-80
2022/03/18 01:17:44;;;;;;;47.77;29.83;;;;;;;10.28;100.00;97389.53;5082613;28;20273;-81
2022/03/18 01:20:12;;;;;;;50.67;30.60;;;;;;;10.17;100.00;97381.97;5082598;28;20216;-81
2022/03/18 01:22:39;;;;;;;49.93;30.07;;;;;;;10.13;100.00;97375.28;5074037;28;20274;-81
2022/03/18 01:25:06;;;;;;;51.83;29.90;;;;;;;10.07;100.00;97382.34;5084950;28;20320;-80
2022/03/18 01:27:35;;;;;;;48.13;29.77;;;;;;;10.05;100.00;97383.56;5082135;28;20219;-81
2022/03/18 01:30:02;;;;;;;43.57;30.00;;;;;;;10.01;100.00;97383.16;5082195;28;20226;-81
2022/03/18 01:32:29;;;;;;;43.73;29.13;;;;;;;10.09;100.00;97384.84;5084445;28;20221;-81
2022/03/18 01:34:56;;;;;;;51.67;30.93;;;;;;;10.06;100.00;97380.69;5080086;28;20219;-81
2022/03/18 01:37:23;;;;;;;49.97;29.27;;;;;;;10.02;100.00;97387.53;5080752;28;20223;-80
2022/03/18 01:39:50;;;;;;;46.47;29.80;;;;;;;10.00;100.00;97391.44;5081895;28;20208;-81
2022/03/18 01:42:17;;;;;;;51.83;30.47;;;;;;;10.01;100.00;97393.13;5081207;28;20219;-81
2022/03/18 01:44:47;;;;;;;45.80;30.33;;;;;;;9.94;100.00;97389.56;5097483;28;20228;-81
2022/03/18 01:47:14;;;;;;;44.53;29.77;;;;;;;9.98;100.00;97388.94;5079781;28;20242;-81
2022/03/18 01:49:42;;;;;;;47.90;30.53;;;;;;;9.84;100.00;97390.75;5076773;28;20220;-81
2022/03/18 01:52:10;;;;;;;50.20;30.10;;;;;;;9.91;100.00;97385.41;5079234;28;20212;-81
2022/03/18 01:54:48;;;;;;;46.40;29.03;;;;;;;9.84;100.00;97387.22;5076284;28;20206;-81
2022/03/18 01:57:19;;;;;;;50.50;30.70;;;;;;;9.79;100.00;97390.50;5077981;28;20214;-81
2022/03/18 01:59:48;;;;;;;48.90;29.17;;;;;;;9.71;100.00;97393.38;5076671;28;20222;-81
2022/03/18 02:02:15;;;;;;;47.90;30.47;;;;;;;9.72;100.00;97395.03;5078119;28;20208;-81
2022/03/18 02:04:43;;;;;;;49.30;32.10;;;;;;;9.70;100.00;97397.09;5080806;28;20201;-81
2022/03/18 02:07:10;;;;;;;46.53;29.87;;;;;;;9.68;100.00;97393.78;5074807;28;20205;-81
2022/03/18 02:09:38;;;;;;;50.20;31.27;;;;;;;9.69;100.00;97405.41;5075195;28;20209;-81
2022/03/18 02:12:07;;;;;;;52.20;30.40;;;;;;;9.59;100.00;97396.84;5079027;28;20204;-81
2022/03/18 02:14:35;;;;;;;52.80;31.57;;;;;;;9.60;100.00;97404.75;5068111;28;20224;-81
2022/03/18 02:17:06;;;;;;;50.97;31.23;;;;;;;9.59;100.00;97399.53;5074500;28;20231;-80
2022/03/18 02:19:34;;;;;;;48.13;29.83;;;;;;;9.63;100.00;97403.50;5091757;28;20204;-81
2022/03/18 02:22:03;;;;;;;45.97;29.80;;;;;;;9.76;100.00;97407.13;5077266;28;20225;-81
2022/03/18 02:24:32;;;;;;;51.97;29.87;;;;;;;9.70;100.00;97407.88;5069362;28;20265;-81
2022/03/18 02:26:59;;;;;;;56.57;30.97;;;;;;;9.67;100.00;97411.00;5076831;28;20201;-81
2022/03/18 02:29:26;;;;;;;52.93;30.23;;;;;;;9.70;100.00;97407.88;5075441;28;20255;-82
2022/03/18 02:31:53;;;;;;;53.17;30.80;;;;;;;9.77;100.00;97410.66;5079264;28;20213;-81
2022/03/18 02:34:22;;;;;;;50.30;30.40;;;;;;;9.72;100.00;97416.63;5079613;28;20296;-81
2022/03/18 02:36:50;;;;;;;50.93;30.77;;;;;;;9.74;100.00;97421.81;5083264;28;20287;-81
2022/03/18 02:39:17;;;;;;;51.83;31.60;;;;;;;9.55;100.00;97419.84;5078193;28;20206;-81
2022/03/18 02:41:46;;;;;;;48.00;30.97;;;;;;;9.65;100.00;97418.44;5083805;28;20283;-81
2022/03/18 02:44:13;;;;;;;50.93;30.47;;;;;;;9.68;100.00;97419.94;5077074;28;20208;-81
2022/03/18 02:46:40;;;;;;;50.53;30.57;;;;;;;9.74;100.00;97424.53;5076103;28;20212;-81
2022/03/18 02:49:08;;;;;;;50.43;30.50;;;;;;;9.67;100.00;97420.97;5082930;28;20204;-81
2022/03/18 02:51:37;;;;;;;48.07;31.27;;;;;;;9.57;100.00;97432.09;5078049;28;20219;-81
2022/03/18 02:54:05;;;;;;;47.17;29.53;;;;;;;9.57;100.00;97424.00;5080564;28;20292;-80
2022/03/18 02:56:33;;;;;;;52.37;31.40;;;;;;;9.60;100.00;97412.00;5075365;28;20208;-81
2022/03/18 02:59:03;;;;;;;45.87;29.70;;;;;;;9.61;100.00;97414.47;5077227;28;20283;-81
2022/03/18 03:01:31;;;;;;;47.30;30.13;;;;;;;9.63;100.00;97417.81;5081239;28;20221;-81
2022/03/18 03:03:59;;;;;;;48.60;31.07;;;;;;;9.61;100.00;97414.47;5081617;28;20220;-81
2022/03/18 03:09:11;;;;;;;54.63;30.17;;;;;;;9.68;100.00;97433.41;5077967;28;20217;-81
2022/03/18 03:11:38;;;;;;;47.57;30.10;;;;;;;9.69;100.00;97437.78;5083203;28;20209;-82
2022/03/18 03:14:06;;;;;;;46.03;28.10;;;;;;;9.77;100.00;97441.16;5075048;28;20265;-81
2022/03/18 03:16:34;;;;;;;47.80;29.47;;;;;;;9.84;100.00;97441.19;5079550;28;20323;-81
2022/03/18 03:19:03;;;;;;;49.43;29.00;;;;;;;10.02;100.00;97443.38;5086492;28;20406;-81
2022/03/18 03:21:31;;;;;;;44.20;29.30;;;;;;;9.96;100.00;97442.28;5076000;28;20252;-81
2022/03/18 03:23:58;;;;;;;45.57;29.77;;;;;;;9.96;100.00;97444.13;5081945;28;20220;-80
2022/03/18 03:26:25;;;;;;;44.50;27.70;;;;;;;9.88;100.00;97448.66;5083108;28;20205;-80
2022/03/18 03:28:52;;;;;;;45.27;28.63;;;;;;;9.68;100.00;97442.34;5076308;28;20208;-81
2022/03/18 03:31:21;;;;;;;48.40;30.60;;;;;;;9.66;100.00;97446.25;5079684;28;20212;-81
2022/03/18 03:33:48;;;;;;;51.10;29.23;;;;;;;9.66;100.00;97447.09;5080757;28;20244;-81
2022/03/18 03:36:15;;;;;;;48.03;29.23;;;;;;;9.68;100.00;97458.53;5077127;28;20201;-80
2022/03/18 03:38:42;;;;;;;43.53;28.43;;;;;;;9.74;100.00;97452.34;5072800;28;20205;-81
2022/03/18 03:41:09;;;;;;;44.70;28.53;;;;;;;9.75;100.00;97462.09;5082095;28;20298;-81
2022/03/18 03:43:36;;;;;;;48.40;28.90;;;;;;;9.78;100.00;97464.38;5085979;28;20263;-81
2022/03/18 03:46:03;;;;;;;45.97;30.20;;;;;;;9.74;100.00;97463.13;5082145;28;20197;-81
2022/03/18 03:48:32;;;;;;;43.70;29.07;;;;;;;9.67;100.00;97467.66;5074493;28;20247;-81
2022/03/18 03:50:59;;;;;;;50.83;29.30;;;;;;;9.64;100.00;97469.88;5085498;28;20196;-81
2022/03/18 03:53:26;;;;;;;45.67;28.50;;;;;;;9.62;100.00;97470.06;5074083;28;20255;-81
2022/03/18 03:55:54;;;;;;;44.17;27.70;;;;;;;9.54;100.00;97466.69;5076065;28;20217;-80
2022/03/18 03:58:21;;;;;;;47.27;30.73;;;;;;;9.38;100.00;97473.22;5079185;28;20205;-80
2022/03/18 04:00:48;;;;;;;48.83;29.83;;;;;;;9.33;100.00;97478.38;5080725;28;20227;-81
2022/03/18 04:03:15;;;;;;;47.43;29.80;;;;;;;9.21;100.00;97477.22;5080151;28;20289;-81
2022/03/18 04:05:44;;;;;;;51.73;30.80;;;;;;;9.24;100.00;97482.22;5085075;28;20192;-81
2022/03/18 04:08:11;;;;;;;44.50;29.67;;;;;;;9.23;100.00;97481.41;5080130;28;20194;-81
2022/03/18 04:10:42;;;;;;;52.03;29.07;;;;;;;9.22;100.00;97492.38;5078256;28;20200;-81
2022/03/18 04:13:10;;;;;;;53.90;30.50;;;;;;;9.20;100.00;97495.25;5088247;28;20212;-81
2022/03/18 04:15:38;;;;;;;46.43;29.90;;;;;;;9.09;100.00;97493.09;5083059;28;20232;-82
2022/03/18 04:18:05;;;;;;;48.40;28.27;;;;;;;9.16;100.00;97490.47;5083723;28;20300;-81
2022/03/18 04:20:33;;;;;;;49.57;29.77;;;;;;;9.00;100.00;97495.09;5074715;28;20212;-81
2022/03/18 04:23:02;;;;;;;48.07;29.60;;;;;;;8.99;100.00;97488.03;5077468;28;20208;-81
2022/03/18 04:25:31;;;;;;;50.83;30.17;;;;;;;8.95;100.00;97483.19;5084032;28;20197;-81
2022/03/18 04:27:59;;;;;;;47.87;30.23;;;;;;;9.03;100.00;97491.16;5080971;28;20204;-80
2022/03/18 04:30:26;;;;;;;46.90;28.83;;;;;;;9.09;100.00;97491.25;5078793;28;20212;-81
2022/03/18 04:32:53;;;;;;;47.03;29.90;;;;;;;8.96;100.00;97491.09;5081866;28;20204;-80
2022/03/18 04:35:21;;;;;;;46.77;29.70;;;;;;;8.93;100.00;97491.47;5079377;28;20205;-82
2022/03/18 04:37:48;;;;;;;44.17;29.77;;;;;;;8.91;100.00;97501.63;5078959;28;20203;-81
2022/03/18 04:40:17;;;;;;;45.97;29.03;;;;;;;8.97;100.00;97502.72;5085392;28;20208;-81
2022/03/18 04:42:45;;;;;;;48.10;30.80;;;;;;;8.92;100.00;97500.59;5078247;28;20233;-81
2022/03/18 04:45:13;;;;;;;50.00;30.73;;;;;;;8.84;100.00;97497.19;5077496;28;20204;-81
2022/03/18 04:47:40;;;;;;;52.37;31.27;;;;;;;8.86;100.00;97500.50;5079404;28;20306;-81
2022/03/18 04:50:09;;;;;;;49.23;31.40;;;;;;;8.77;100.00;97499.78;5078457;28;20205;-81
2022/03/18 04:52:36;;;;;;;51.40;30.67;;;;;;;8.75;100.00;97501.88;5080155;28;20300;-81
2022/03/18 04:55:03;;;;;;;53.33;31.93;;;;;;;8.68;100.00;97498.25;5072173;28;20293;-81
2022/03/18 04:57:32;;;;;;;52.50;30.77;;;;;;;8.67;100.00;97502.00;5080936;28;20224;-81
2022/03/18 04:59:59;;;;;;;53.90;31.50;;;;;;;8.69;100.00;97499.91;5080422;28;20236;-81
2022/03/18 05:02:26;;;;;;;48.97;29.77;;;;;;;8.67;100.00;97497.44;5082890;28;20235;-81
2022/03/18 05:04:53;;;;;;;48.67;29.97;;;;;;;8.75;100.00;97509.94;5079518;28;20231;-82
2022/03/18 05:07:20;;;;;;;49.37;32.10;;;;;;;8.81;100.00;97508.34;5084652;28;20189;-81
2022/03/18 05:09:48;;;;;;;50.43;32.10;;;;;;;8.80;100.00;97512.88;5075161;28;20213;-81
2022/03/18 05:12:17;;;;;;;49.93;29.77;;;;;;;8.84;100.00;97513.34;5077084;28;20210;-81
2022/03/18 05:14:46;;;;;;;54.87;32.27;;;;;;;8.82;100.00;97513.53;5083195;28;20211;-81
2022/03/18 05:17:13;;;;;;;50.53;32.07;;;;;;;8.95;100.00;97513.66;5074442;28;20201;-81
2022/03/18 05:19:40;;;;;;;51.30;31.40;;;;;;;9.07;100.00;97517.53;5080379;28;20209;-81
2022/03/18 05:22:08;;;;;;;53.87;31.00;;;;;;;9.07;100.00;97520.22;5078596;28;20225;-81
2022/03/18 05:24:35;;;;;;;47.43;31.37;;;;;;;9.04;100.00;97506.28;5077662;28;20233;-81
2022/03/18 05:27:03;;;;;;;55.03;32.07;;;;;;;9.14;100.00;97517.59;5084855;28;20212;-80
2022/03/18 05:29:31;;;;;;;55.90;31.03;;;;;;;9.08;100.00;97519.22;5082344;28;20307;-81
2022/03/18 05:31:59;;;;;;;49.00;31.43;;;;;;;9.00;100.00;97519.34;5080035;28;20207;-81
2022/03/18 05:34:26;;;;;;;48.43;31.80;;;;;;;8.93;100.00;97518.41;5081610;28;20269;-80
2022/03/18 05:36:53;;;;;;;49.47;31.50;;;;;;;9.00;100.00;97513.94;5080817;28;20204;-81
2022/03/18 05:39:21;;;;;;;53.90;33.33;;;;;;;8.90;100.00;97518.81;5080320;28;20214;-80
2022/03/18 05:41:49;;;;;;;52.60;32.53;;;;;;;8.88;100.00;97520.84;5081013;28;20293;-81
2022/03/18 05:44:16;;;;;;;51.87;32.30;;;;;;;8.88;100.00;97526.25;5080791;28;20204;-81
2022/03/18 05:46:43;;;;;;;51.23;32.27;;;;;;;8.82;100.00;97527.00;5076300;28;20208;-81
2022/03/18 05:49:12;;;;;;;55.60;33.00;;;;;;;8.88;100.00;97520.00;5082109;28;20216;-80
2022/03/18 05:51:39;;;;;;;50.63;31.93;;;;;;;9.02;100.00;97533.41;5079480;28;20207;-81
2022/03/18 05:54:06;;;;;;;50.13;33.10;;;;;;;8.95;100.00;97532.53;5079369;28;20209;-80
2022/03/18 05:59:19;;;;;;;52.60;31.73;;;;;;;9.01;100.00;97530.94;5080778;28;20207;-81
2022/03/18 06:01:46;;;;;;;52.07;32.10;;;;;;;9.17;100.00;97535.25;5079291;28;20222;-80
2022/03/18 06:04:14;;;;;;;49.90;31.63;;;;;;;8.90;100.00;97528.75;5081898;28;20236;-80
2022/03/18 06:06:43;;;;;;;53.27;32.40;;;;;;;8.70;100.00;97533.91;5079083;28;20287;-81
2022/03/18 06:11:56;;;;;;;56.17;33.70;;;;;;;8.77;100.00;97545.56;5092918;28;20209;-80
2022/03/18 06:14:26;;;;;;;57.00;33.80;;;;;;;8.71;100.00;97535.56;5080157;28;20200;-80
2022/03/18 06:16:55;;;;;;;54.07;33.63;;;;;;;8.73;100.00;97537.06;5079469;28;20224;-80
2022/03/18 06:19:25;;;;;;;48.60;33.77;;;;;;;8.70;100.00;97536.59;5069584;28;20200;-80
2022/03/18 06:21:52;;;;;;;52.60;33.67;;;;;;;8.71;100.00;97540.97;5072005;28;20225;-80
2022/03/18 06:24:20;;;;;;;52.70;33.17;;;;;;;8.64;100.00;97537.34;5080880;28;20252;-80
2022/03/18 06:26:48;;;;;;;53.73;32.53;;;;;;;8.67;100.00;97532.44;5082033;28;20201;-80
2022/03/18 06:29:15;;;;;;;48.83;31.70;;;;;;;8.63;100.00;97533.81;5080718;28;20300;-81
2022/03/18 06:31:42;;;;;;;52.03;32.70;;;;;;;8.68;100.00;97533.25;5076332;28;20259;-81
2022/03/18 06:34:11;;;;;;;49.50;33.23;;;;;;;8.68;100.00;97526.00;5073958;28;20197;-81
2022/03/18 06:36:40;;;;;;;52.93;32.40;;;;;;;8.73;100.00;97531.69;5074963;28;20227;-81
2022/03/18 06:39:08;;;;;;;54.57;32.97;;;;;;;8.86;100.00;97538.22;5077384;28;20300;-81
2022/03/18 06:41:37;;;;;;;52.63;32.37;;;;;;;8.86;100.00;97540.91;5078972;28;20285;-81
2022/03/18 06:44:06;;;;;;;52.30;32.80;;;;;;;8.84;100.00;97546.50;5074503;28;20211;-80
2022/03/18 06:46:34;;;;;;;50.37;33.07;;;;;;;8.84;100.00;97546.50;5080143;28;20287;-81
2022/03/18 06:49:01;;;;;;;50.47;32.03;;;;;;;8.91;100.00;97542.03;5081669;28;20242;-81
2022/03/18 06:51:28;;;;;;;49.87;31.00;;;;;;;8.92;100.00;97545.56;5081031;28;20265;-80
2022/03/18 06:53:56;;;;;;;49.17;30.83;;;;;;;8.89;100.00;97548.63;5081199;28;20200;-81
2022/03/18 06:56:25;;;;;;;46.33;31.73;;;;;;;8.82;100.00;97551.25;5076622;28;20204;-81
2022/03/18 06:58:52;;;;;;;50.47;31.80;;;;;;;8.83;100.00;97555.63;5078644;28;20284;-81
2022/03/18 07:01:21;;;;;;;48.50;32.50;;;;;;;8.85;100.00;97558.94;5079635;28;20204;-81
2022/03/18 07:03:48;;;;;;;53.77;33.00;;;;;;;8.82;100.00;97555.78;5073753;28;20341;-80
2022/03/18 07:06:15;;;;;;;53.17;32.47;;;;;;;8.82;100.00;97556.63;5083051;28;20274;-80
2022/03/18 07:08:42;;;;;;;47.77;31.20;;;;;;;8.75;100.00;97558.41;5084327;28;20193;-82
2022/03/18 07:11:13;;;;;;;53.40;31.63;;;;;;;8.77;100.00;97567.13;5071190;28;20205;-80
2022/03/18 07:13:42;;;;;;;43.40;29.70;;;;;;;8.77;100.00;97553.66;5075979;28;20194;-81
2022/03/18 07:18:55;;;;;;;55.23;33.40;;;;;;;8.86;100.00;97568.69;5081582;28;20295;-81
2022/03/18 07:21:22;;;;;;;51.87;32.57;;;;;;;8.81;100.00;97572.97;5077528;28;20193;-81
2022/03/18 07:23:49;;;;;;;51.53;33.47;;;;;;;8.69;100.00;97580.69;5079744;28;20289;-81
2022/03/18 07:26:18;;;;;;;50.90;31.87;;;;;;;8.69;100.00;97576.16;5117287;27;20214;-82
2022/03/18 07:28:46;;;;;;;49.40;29.47;;;;;;;8.62;100.00;97579.78;5076649;28;20205;-80
2022/03/18 07:31:12;;;;;;;42.90;28.10;;;;;;;8.62;100.00;97580.63;5083326;28;20197;-81
2022/03/18 07:33:40;;;;;;;50.10;29.33;;;;;;;8.55;100.00;97568.94;5078448;28;20260;-81
2022/03/18 07:36:07;;;;;;;45.43;29.80;;;;;;;8.57;100.00;97582.22;5083452;28;20215;-80
2022/03/18 07:38:34;;;;;;;47.53;29.60;;;;;;;8.57;100.00;97588.44;5082364;28;20210;-80
2022/03/18 07:41:01;;;;;;;48.03;30.57;;;;;;;8.55;100.00;97579.72;5081300;28;20209;-80
2022/03/18 07:43:29;;;;;;;52.63;31.63;;;;;;;8.48;100.00;97588.72;5077910;28;20243;-81
2022/03/18 07:45:56;;;;;;;47.77;31.37;;;;;;;8.57;100.00;97584.91;5078398;28;20209;-81
2022/03/18 07:48:26;;;;;;;49.27;31.50;;;;;;;8.50;100.00;97586.69;5081479;28;20205;-81
2022/03/18 07:50:53;;;;;;;48.97;31.17;;;;;;;8.42;100.00;97595.66;5084580;28;20201;-81
2022/03/18 07:53:20;;;;;;;48.03;31.37;;;;;;;8.53;100.00;97578.22;5081116;28;20240;-81
2022/03/18 07:55:48;;;;;;;50.00;30.70;;;;;;;8.47;100.00;97584.34;5083315;28;20204;-81
2022/03/18 07:58:15;;;;;;;53.63;32.43;;;;;;;8.60;100.00;97584.50;5082239;28;20207;-80
2022/03/18 08:00:44;;;;;;;48.83;31.20;;;;;;;8.65;100.00;97595.56;5080832;28;20209;-81
2022/03/18 08:03:12;;;;;;;46.77;30.60;;;;;;;8.83;100.00;97585.25;5077758;28;20220;-81
2022/03/18 08:05:40;;;;;;;46.30;30.20;;;;;;;8.89;100.00;97587.16;5072234;28;20212;-81
2022/03/18 08:08:08;;;;;;;47.10;28.43;;;;;;;8.88;100.00;97590.88;5081017;28;20202;-79
2022/03/18 08:10:35;;;;;;;42.20;28.83;;;;;;;8.84;100.00;97595.00;5083298;28;20294;-81
2022/03/18 08:13:03;;;;;;;43.20;26.97;;;;;;;8.77;100.00;97598.59;5099124;28;20280;-81
2022/03/18 08:15:30;;;;;;;36.83;24.70;;;;;;;8.77;100.00;97599.44;5081296;28;20223;-81
2022/03/18 08:17:59;;;;;;;38.83;26.77;;;;;;;8.82;100.00;97591.66;5086956;28;20208;-81
2022/03/18 08:20:26;;;;;;;41.50;26.93;;;;;;;8.88;100.00;97590.88;5079225;28;20199;-81
2022/03/18 08:22:54;;;;;;;37.67;26.10;;;;;;;8.92;100.00;97592.19;5084405;28;20225;-81
2022/03/18 08:25:22;;;;;;;38.47;24.80;;;;;;;8.80;100.00;97604.47;5083069;28;20259;-81
2022/03/18 08:27:49;;;;;;;38.77;26.00;;;;;;;8.82;100.00;97606.97;5080038;28;20220;-81
2022/03/18 08:30:17;;;;;;;37.33;25.27;;;;;;;8.84;100.00;97613.00;5083401;28;20201;-80
2022/03/18 08:32:45;;;;;;;40.43;26.50;;;;;;;8.82;100.00;97612.34;5082215;28;20212;-81
2022/03/18 08:35:14;;;;;;;42.07;26.10;;;;;;;8.79;100.00;97616.25;5073119;28;20194;-80
2022/03/18 08:40:37;;;;;;;38.93;26.40;;;;;;;8.74;100.00;97618.69;5036973;28;20205;-80
2022/03/18 08:43:06;;;;;;;43.07;27.00;;;;;;;8.79;100.00;97618.94;5081935;28;20223;-81
2022/03/18 08:45:34;;;;;;;39.27;25.73;;;;;;;8.71;100.00;97619.88;5078298;28;20240;-80
2022/03/18 08:48:01;;;;;;;42.87;25.93;;;;;;;8.83;100.00;97614.88;5082455;28;20225;-80
2022/03/18 08:50:30;;;;;;;40.13;26.50;;;;;;;8.80;100.00;97615.22;5081498;28;20213;-81
2022/03/18 08:52:58;;;;;;;44.87;26.97;;;;;;;8.63;100.00;97613.78;5069608;28;20220;-80
2022/03/18 08:55:25;;;;;;;41.73;27.33;;;;;;;8.61;100.00;97613.13;5079107;28;20202;-81
2022/03/18 08:57:53;;;;;;;38.67;25.97;;;;;;;8.59;100.00;97615.19;5078140;28;20207;-80
2022/03/18 09:00:20;;;;;;;39.07;24.67;;;;;;;8.69;100.00;97621.09;5084522;28;20219;-80
2022/03/18 09:02:49;;;;;;;39.57;25.17;;;;;;;8.82;100.00;97623.97;5082065;28;20229;-81
2022/03/18 09:05:16;;;;;;;35.20;24.13;;;;;;;8.87;100.00;97623.38;5082985;28;20259;-81
2022/03/18 09:07:45;;;;;;;40.00;24.93;;;;;;;8.89;100.00;97621.34;5084088;28;20200;-81
2022/03/18 09:10:13;;;;;;;38.53;23.57;;;;;;;8.86;100.00;97633.31;5077774;28;20205;-81
2022/03/18 09:12:48;;;;;;;34.70;24.13;;;;;;;8.86;100.00;97630.63;5069624;28;20197;-81
2022/03/18 09:15:15;;;;;;;36.43;24.20;;;;;;;8.91;100.00;97638.16;5081261;28;20228;-81
2022/03/18 09:17:42;;;;;;;36.93;23.67;;;;;;;8.85;100.00;97647.81;5074828;28;20205;-81
2022/03/18 09:20:10;;;;;;;36.17;24.13;;;;;;;8.88;100.00;97641.22;5077118;28;20197;-81
2022/03/18 09:22:37;;;;;;;36.60;24.77;;;;;;;8.75;100.00;97633.81;5081683;28;20244;-80
2022/03/18 09:25:07;;;;;;;37.87;24.27;;;;;;;8.78;100.00;97638.81;5081385;28;20328;-80
2022/03/18 09:27:34;;;;;;;37.93;25.07;;;;;;;8.78;100.00;97638.81;5077872;28;20212;-81
2022/03/18 09:30:01;;;;;;;32.17;22.97;;;;;;;8.74;100.00;97640.22;5083896;28;20208;-81
2022/03/18 09:32:28;;;;;;;35.57;24.37;;;;;;;8.66;100.00;97643.03;5078081;28;20204;-81
2022/03/18 09:34:56;;;;;;;37.47;24.93;;;;;;;8.67;100.00;97642.00;5078503;28;20254;-79
2022/03/18 09:37:23;;;;;;;38.70;25.17;;;;;;;8.59;100.00;97645.59;5074050;28;20209;-81
2022/03/18 09:39:50;;;;;;;36.60;24.20;;;;;;;8.71;100.00;97654.06;5075716;28;20212;-81
2022/03/18 09:42:19;;;;;;;35.40;24.10;;;;;;;8.74;100.00;97656.38;5085275;28;20225;-81
2022/03/18 09:44:46;;;;;;;34.13;23.10;;;;;;;8.68;100.00;97651.72;5082318;28;20212;-81
2022/03/18 09:47:13;;;;;;;37.40;23.50;;;;;;;8.76;100.00;97650.81;5076713;28;20198;-80
2022/03/18 09:49:44;;;;;;;35.40;23.47;;;;;;;8.91;100.00;97665.94;5083298;28;20197;-81
2022/03/18 09:52:12;;;;;;;32.33;22.03;;;;;;;8.98;100.00;97655.25;5072264;28;20227;-80
2022/03/18 09:54:39;;;;;;;32.57;22.50;;;;;;;9.07;100.00;97654.13;5079495;28;20288;-81
2022/03/18 09:57:06;;;;;;;34.47;22.33;;;;;;;9.16;100.00;97654.84;5075747;28;20204;-81
2022/03/18 09:59:35;;;;;;;36.17;23.40;;;;;;;9.24;100.00;97639.38;5079761;28;20269;-81
2022/03/18 10:02:25;;;;;;;31.13;21.57;;;;;;;9.46;100.00;97646.47;5073776;28;20212;-79
2022/03/18 10:04:52;;;;;;;33.53;22.63;;;;;;;9.55;100.00;97647.16;5093866;28;20213;-83
2022/03/18 10:07:21;;;;;;;33.20;21.50;;;;;;;9.52;100.00;97644.03;5076292;28;20219;-81
2022/03/18 10:09:49;;;;;;;31.70;21.67;;;;;;;9.58;100.00;97641.41;5080335;28;20216;-80
2022/03/18 10:12:34;;;;;;;32.40;21.10;;;;;;;9.49;100.00;97642.56;5075977;28;20208;-81
2022/03/18 10:15:09;;;;;;;37.20;22.57;;;;;;;9.47;100.00;97637.34;5083306;28;20208;-80
2022/03/18 10:17:41;;;;;;;36.13;23.13;;;;;;;9.47;100.00;97639.22;5076919;28;20373;-81
2022/03/18 10:20:23;;;;;;;32.53;20.93;;;;;;;9.64;100.00;97637.94;5077281;28;20343;-80
2022/03/18 10:22:50;;;;;;;35.03;21.90;;;;;;;9.60;100.00;97635.81;5069991;28;20236;-79
2022/03/18 10:25:40;;;;;;;33.00;21.97;;;;;;;9.49;100.00;97632.59;5070637;28;20203;-81
2022/03/18 10:28:08;;;;;;;36.93;23.33;;;;;;;9.53;100.00;97630.34;5076352;28;20198;-80
2022/03/18 10:30:38;;;;;;;33.60;23.00;;;;;;;9.50;100.00;97630.75;5069865;28;20212;-81
2022/03/18 10:33:06;;;;;;;36.43;22.60;;;;;;;9.51;100.00;97632.41;5083746;28;20295;-81
2022/03/18 10:38:31;;;;;;;35.97;22.43;;;;;;;9.53;100.00;97632.22;5078992;28;20213;-80
2022/03/18 10:40:59;;;;;;;33.77;22.93;;;;;;;9.59;100.00;97629.59;5076001;28;20209;-80
2022/03/18 10:43:27;;;;;;;33.20;21.73;;;;;;;9.57;100.00;97633.50;5080226;28;20228;-81
2022/03/18 10:46:03;;;;;;;33.90;22.53;;;;;;;9.50;100.00;97633.44;5074494;28;20209;-81
2022/03/18 10:48:31;;;;;;;35.30;24.03;;;;;;;9.38;100.00;97643.06;5078278;28;20211;-81
2022/03/18 10:51:06;;;;;;;36.83;23.03;;;;;;;9.39;100.00;97644.72;5081001;28;20204;-81
2022/03/18 10:53:34;;;;;;;39.50;24.03;;;;;;;9.43;100.00;97644.16;5078110;28;20227;-81
2022/03/18 10:56:03;;;;;;;35.77;23.17;;;;;;;9.34;100.00;97639.09;5076046;28;20266;-80
2022/03/18 10:58:32;;;;;;;35.30;23.87;;;;;;;9.32;100.00;97641.13;5076589;28;20212;-81
2022/03/18 11:01:03;;;;;;;35.93;24.00;;;;;;;9.18;100.00;97645.53;5076964;28;20224;-81
2022/03/18 11:03:32;;;;;;;42.33;24.33;;;;;;;9.27;100.00;97657.06;5082171;28;20444;-81
2022/03/18 11:06:02;;;;;;;34.10;24.03;;;;;;;9.24;100.00;97657.41;5081518;28;20208;-81
2022/03/18 11:08:36;;;;;;;40.00;25.47;;;;;;;9.17;100.00;97651.97;5082827;28;20232;-80
2022/03/18 11:11:11;;;;;;;41.70;24.80;;;;;;;9.27;100.00;97660.56;5077765;28;20323;-84
2022/03/18 11:14:02;;;;;;;38.20;24.00;;;;;;;9.34;100.00;97657.94;5081322;28;20258;-81
2022/03/18 11:16:34;;;;;;;39.57;24.73;;;;;;;9.27;100.00;97659.75;5065100;28;20233;-81
2022/03/18 11:19:06;;;;;;;40.27;25.37;;;;;;;9.23;100.00;97655.75;5077456;28;20219;-81
2022/03/18 11:21:38;;;;;;;38.00;23.80;;;;;;;9.15;100.00;97661.25;5071683;28;20216;-81
2022/03/18 11:24:08;;;;;;;37.63;25.40;;;;;;;9.17;100.00;97661.91;5076751;28;20233;-83
2022/03/18 11:26:37;;;;;;;42.37;25.00;;;;;;;9.13;100.00;97647.97;5072600;28;20205;-83
2022/03/18 11:29:09;;;;;;;41.90;24.83;;;;;;;9.14;100.00;97657.72;5074588;28;20210;-81
2022/03/18 11:31:38;;;;;;;35.47;24.67;;;;;;;9.01;100.00;97658.41;5068197;28;20208;-81
2022/03/18 11:34:10;;;;;;;41.53;25.17;;;;;;;9.11;100.00;97650.84;5067853;28;20206;-81
2022/03/18 11:36:44;;;;;;;38.77;25.07;;;;;;;9.13;100.00;97642.56;5074776;28;20292;-81
2022/03/18 11:39:11;;;;;;;38.67;25.00;;;;;;;9.25;100.00;97643.75;5071260;28;20292;-80
2022/03/18 11:41:56;;;;;;;44.67;25.80;;;;;;;9.18;100.00;97644.72;5078628;28;20210;-81
2022/03/18 11:44:50;;;;;;;36.43;24.17;;;;;;;9.13;100.00;97639.03;5075155;28;20221;-80